Time;durP1;ratioP1;P1;durP2;ratioP2;P2;SDS_P1;SDS_P2;PMS_P1;PMS_P2;Temp;Humidity;BMP_temperature;BMP_pressure;BME280_temperature;BME280_humidity;BME280_pressure;Samples;Min_cycle;Max_cycle;Signal;HPM_P1;HPM_P2
2023/07/29 00:01:44;;;;;;;86.97;52.03;;;21.20;99.90;;;;;;5078387;28;20658;-81
2023/07/29 00:04:09;;;;;;;89.00;57.47;;;21.20;99.90;;;;;;5079144;28;20192;-81
2023/07/29 00:06:38;;;;;;;89.93;57.43;;;21.20;99.90;;;;;;5078363;28;20222;-81
2023/07/29 00:09:04;;;;;;;93.13;54.67;;;21.20;99.90;;;;;;5078294;28;20213;-80
2023/07/29 00:11:30;;;;;;;90.83;42.03;;;21.20;99.90;;;;;;5078979;28;20441;-79
2023/07/29 00:13:56;;;;;;;84.10;42.90;;;21.10;99.90;;;;;;5076913;28;20179;-79
2023/07/29 00:16:22;;;;;;;89.50;43.97;;;21.10;99.90;;;;;;5077997;28;20404;-79
2023/07/29 00:18:48;;;;;;;82.77;39.53;;;21.10;99.90;;;;;;5078062;28;20190;-80
2023/07/29 00:21:14;;;;;;;86.07;37.53;;;21.00;99.90;;;;;;5078221;28;20397;-79
2023/07/29 00:23:39;;;;;;;89.23;42.53;;;21.00;99.90;;;;;;5077972;28;20405;-80
2023/07/29 00:26:05;;;;;;;80.00;33.97;;;21.00;99.90;;;;;;5079170;28;20167;-80
2023/07/29 00:28:31;;;;;;;85.90;43.80;;;21.00;99.90;;;;;;5078855;28;20219;-80
2023/07/29 00:30:57;;;;;;;86.67;44.70;;;21.00;99.90;;;;;;5077781;28;20160;-80
2023/07/29 00:33:22;;;;;;;89.67;52.77;;;20.90;99.90;;;;;;5075751;28;20218;-80
2023/07/29 00:35:49;;;;;;;91.57;53.83;;;20.90;99.90;;;;;;5076419;28;20197;-80
2023/07/29 00:38:15;;;;;;;84.60;46.13;;;20.90;99.90;;;;;;5076012;28;20185;-80
2023/07/29 00:40:44;;;;;;;90.07;54.47;;;20.80;99.90;;;;;;5075311;28;20409;-80
2023/07/29 00:43:09;;;;;;;88.27;46.30;;;20.80;99.90;;;;;;5077151;28;20227;-80
2023/07/29 00:45:36;;;;;;;88.47;57.43;;;20.70;99.90;;;;;;5076540;28;20397;-81
2023/07/29 00:48:03;;;;;;;91.30;62.67;;;20.80;99.90;;;;;;5076336;28;20180;-81
2023/07/29 00:50:30;;;;;;;104.23;84.20;;;20.70;99.90;;;;;;5075971;28;20401;-81
2023/07/29 00:52:57;;;;;;;104.80;74.90;;;20.70;99.90;;;;;;5075538;28;20476;-81
2023/07/29 00:55:23;;;;;;;101.43;82.30;;;20.70;99.90;;;;;;5076755;28;20412;-81
2023/07/29 00:57:51;;;;;;;89.97;59.13;;;20.80;99.90;;;;;;5077056;28;20393;-81
2023/07/29 01:00:17;;;;;;;84.43;44.23;;;20.80;99.90;;;;;;5075684;28;20985;-81
2023/07/29 01:02:43;;;;;;;87.57;51.97;;;20.80;99.90;;;;;;5077636;28;20395;-81
2023/07/29 01:05:41;;;;;;;101.20;68.23;;;20.80;99.90;;;;;;5076407;28;20503;-81
2023/07/29 01:08:30;;;;;;;99.83;71.30;;;20.80;99.90;;;;;;5072984;28;20421;-82
2023/07/29 01:11:18;;;;;;;90.63;52.17;;;20.80;99.90;;;;;;5076919;28;20388;-82
2023/07/29 01:13:58;;;;;;;87.30;50.63;;;20.90;99.90;;;;;;5076160;28;20412;-82
2023/07/29 01:16:42;;;;;;;88.33;53.10;;;20.90;99.90;;;;;;5076438;28;20380;-82
2023/07/29 01:19:35;;;;;;;95.20;66.43;;;20.80;99.90;;;;;;5076622;28;20428;-82
2023/07/29 01:22:04;;;;;;;91.90;58.17;;;20.80;99.90;;;;;;5071906;28;20412;-82
2023/07/29 01:24:29;;;;;;;102.83;78.20;;;20.80;99.90;;;;;;5076382;28;20761;-82
2023/07/29 01:26:55;;;;;;;116.73;104.23;;;20.70;99.90;;;;;;5076244;28;20402;-82
2023/07/29 01:29:21;;;;;;;109.00;94.17;;;20.70;99.90;;;;;;5076512;28;20669;-82
2023/07/29 01:31:51;;;;;;;111.30;97.57;;;20.70;99.90;;;;;;5076264;28;20191;-82
2023/07/29 01:34:34;;;;;;;107.37;89.33;;;20.70;99.90;;;;;;5075101;28;20157;-80
2023/07/29 01:37:05;;;;;;;101.83;74.17;;;20.70;99.90;;;;;;5072754;28;20414;-80
2023/07/29 01:39:36;;;;;;;120.63;107.67;;;20.70;99.90;;;;;;5074567;28;20431;-80
2023/07/29 01:42:02;;;;;;;142.77;128.97;;;20.70;99.90;;;;;;5073168;28;20419;-79
2023/07/29 01:44:28;;;;;;;126.07;113.00;;;20.70;99.90;;;;;;5075186;28;20459;-79
2023/07/29 01:46:56;;;;;;;151.40;137.37;;;20.70;99.90;;;;;;5073553;28;20414;-80
2023/07/29 01:49:21;;;;;;;155.77;141.43;;;20.60;99.90;;;;;;5074449;28;20460;-80
2023/07/29 01:51:47;;;;;;;152.70;138.37;;;20.70;99.90;;;;;;5074756;28;20450;-80
2023/07/29 01:54:13;;;;;;;205.17;188.47;;;20.70;99.90;;;;;;5076300;28;20158;-80
2023/07/29 01:56:38;;;;;;;372.53;346.33;;;20.70;99.90;;;;;;5074636;28;20702;-81
2023/07/29 01:59:04;;;;;;;170.60;155.33;;;20.70;99.90;;;;;;5077451;28;20571;-82
2023/07/29 02:01:31;;;;;;;188.50;172.67;;;20.40;99.90;;;;;;5077138;28;20531;-82
2023/07/29 02:03:56;;;;;;;147.67;134.13;;;20.40;99.90;;;;;;5079626;28;20157;-82
2023/07/29 02:06:22;;;;;;;161.73;147.33;;;20.40;99.90;;;;;;5080382;28;20928;-82
2023/07/29 02:08:48;;;;;;;180.67;165.43;;;20.30;99.90;;;;;;5082051;28;20663;-82
2023/07/29 02:11:14;;;;;;;170.17;155.27;;;20.30;99.90;;;;;;5081864;28;20165;-80
2023/07/29 02:13:39;;;;;;;180.83;165.57;;;20.20;99.90;;;;;;5163529;22;20534;-85
2023/07/29 02:16:05;;;;;;;174.33;159.33;;;20.20;99.90;;;;;;5120127;28;20174;-85
2023/07/29 02:18:31;;;;;;;150.87;137.27;;;20.30;99.90;;;;;;5114485;28;20609;-84
2023/07/29 02:20:56;;;;;;;165.57;151.27;;;20.30;99.90;;;;;;5100037;28;20163;-84
2023/07/29 02:23:22;;;;;;;172.13;157.97;;;20.30;99.90;;;;;;5081287;28;20169;-85
2023/07/29 02:25:48;;;;;;;183.80;169.00;;;20.30;99.90;;;;;;5099783;28;20175;-84
2023/07/29 02:28:14;;;;;;;186.33;170.73;;;20.30;99.90;;;;;;5099812;28;20409;-84
2023/07/29 02:30:46;;;;;;;165.43;151.10;;;20.30;99.90;;;;;;5081435;28;20665;-85
2023/07/29 02:33:14;;;;;;;182.93;168.10;;;20.20;99.90;;;;;;5081615;28;20192;-84
2023/07/29 02:35:48;;;;;;;196.83;180.73;;;20.30;99.90;;;;;;5100207;28;20857;-84
2023/07/29 02:38:14;;;;;;;185.47;170.13;;;20.30;99.90;;;;;;5100001;28;20812;-84
2023/07/29 02:40:40;;;;;;;176.77;162.07;;;20.30;99.90;;;;;;5099712;28;20403;-84
2023/07/29 02:43:05;;;;;;;174.90;160.10;;;20.30;99.90;;;;;;5081211;28;20175;-84
2023/07/29 02:45:31;;;;;;;177.43;162.47;;;20.30;99.90;;;;;;5099964;28;20565;-85
2023/07/29 02:47:57;;;;;;;186.80;171.23;;;20.30;99.90;;;;;;5081488;28;20197;-84
2023/07/29 02:50:22;;;;;;;166.40;151.47;;;20.30;99.90;;;;;;5100003;28;20194;-84
2023/07/29 02:52:48;;;;;;;187.37;171.60;;;20.40;99.90;;;;;;5099928;28;20194;-84
2023/07/29 02:55:14;;;;;;;188.00;172.33;;;20.40;99.90;;;;;;5099878;28;20164;-84
2023/07/29 02:57:39;;;;;;;177.87;162.80;;;20.40;99.90;;;;;;5081252;28;20161;-84
2023/07/29 03:00:07;;;;;;;210.33;193.23;;;20.30;99.90;;;;;;5081133;28;20191;-84
2023/07/29 03:02:32;;;;;;;181.93;166.47;;;20.40;99.90;;;;;;5099176;28;20190;-85
2023/07/29 03:04:58;;;;;;;185.70;170.13;;;20.40;99.90;;;;;;5099264;28;20412;-85
2023/07/29 03:07:24;;;;;;;190.67;174.63;;;20.30;99.90;;;;;;5099129;28;20535;-84
2023/07/29 03:09:49;;;;;;;189.50;173.77;;;20.40;99.90;;;;;;5098887;28;20238;-85
2023/07/29 03:12:15;;;;;;;180.00;164.87;;;20.40;99.90;;;;;;5098814;28;20219;-84
2023/07/29 03:14:41;;;;;;;185.07;169.40;;;20.30;99.90;;;;;;5098633;28;20647;-85
2023/07/29 03:17:07;;;;;;;181.37;166.40;;;20.40;99.90;;;;;;5099542;28;20199;-84
2023/07/29 03:19:32;;;;;;;172.80;157.97;;;20.40;99.90;;;;;;5098887;28;21014;-84
2023/07/29 03:21:58;;;;;;;203.30;187.00;;;20.30;99.90;;;;;;5098953;28;20163;-84
2023/07/29 03:24:24;;;;;;;199.77;183.77;;;20.30;99.90;;;;;;5081032;28;20194;-85
2023/07/29 03:26:49;;;;;;;182.30;166.97;;;20.40;99.90;;;;;;5098984;28;20193;-84
2023/07/29 03:29:15;;;;;;;187.10;171.50;;;20.40;99.90;;;;;;5080133;28;20191;-84
2023/07/29 03:31:41;;;;;;;203.70;187.33;;;20.40;99.90;;;;;;5097945;28;20241;-84
2023/07/29 03:34:06;;;;;;;180.53;165.07;;;20.30;99.90;;;;;;5079830;28;20175;-84
2023/07/29 03:36:32;;;;;;;170.00;155.37;;;20.30;99.90;;;;;;5098020;28;20156;-84
2023/07/29 03:38:58;;;;;;;171.67;156.43;;;20.30;99.90;;;;;;5079663;28;20214;-84
2023/07/29 03:41:24;;;;;;;175.27;160.43;;;20.30;99.90;;;;;;5079839;28;20435;-84
2023/07/29 03:43:49;;;;;;;205.63;188.93;;;20.30;99.90;;;;;;5098080;28;20163;-84
2023/07/29 03:46:19;;;;;;;203.50;186.80;;;20.30;99.90;;;;;;5080277;28;20201;-85
2023/07/29 03:48:45;;;;;;;184.10;168.63;;;20.20;99.90;;;;;;5080103;28;20196;-85
2023/07/29 03:51:10;;;;;;;192.73;176.83;;;20.20;99.90;;;;;;5098821;28;20905;-85
2023/07/29 03:53:39;;;;;;;194.27;178.47;;;20.20;99.90;;;;;;5079802;28;20190;-85
2023/07/29 03:56:05;;;;;;;193.87;177.97;;;20.30;99.90;;;;;;5079693;28;20175;-85
2023/07/29 03:58:31;;;;;;;183.47;168.47;;;20.20;99.90;;;;;;5098351;28;20428;-85
2023/07/29 04:00:56;;;;;;;204.40;187.90;;;20.10;99.90;;;;;;5098076;28;20170;-85
2023/07/29 04:03:22;;;;;;;211.63;194.67;;;20.10;99.90;;;;;;5079659;28;20402;-84
2023/07/29 04:05:48;;;;;;;217.97;201.03;;;20.10;99.90;;;;;;5080123;28;20170;-84
2023/07/29 04:08:13;;;;;;;190.73;174.87;;;20.10;99.90;;;;;;5078982;28;20273;-84
2023/07/29 04:10:39;;;;;;;189.93;174.10;;;20.20;99.90;;;;;;5097653;28;20164;-84
2023/07/29 04:13:05;;;;;;;216.13;199.23;;;20.20;99.90;;;;;;5097733;28;20191;-84
2023/07/29 04:15:31;;;;;;;218.63;201.80;;;20.20;99.90;;;;;;5098174;28;20523;-84
2023/07/29 04:17:57;;;;;;;198.03;182.00;;;20.10;99.90;;;;;;5079771;28;20206;-84
2023/07/29 04:20:22;;;;;;;189.10;173.40;;;20.10;99.90;;;;;;5079330;28;20405;-85
2023/07/29 04:22:48;;;;;;;185.93;170.27;;;20.20;99.90;;;;;;5097727;28;20171;-84
2023/07/29 04:25:14;;;;;;;175.63;160.50;;;20.20;99.90;;;;;;5097448;28;20219;-85
2023/07/29 04:27:39;;;;;;;186.37;170.90;;;20.20;99.90;;;;;;5078918;28;20224;-84
2023/07/29 04:30:06;;;;;;;155.07;141.20;;;20.20;99.90;;;;;;5098038;28;20187;-84
2023/07/29 04:32:31;;;;;;;198.47;182.40;;;20.20;99.90;;;;;;5079279;28;20195;-84
2023/07/29 04:34:57;;;;;;;174.73;159.80;;;20.20;99.90;;;;;;5097419;28;20393;-84
2023/07/29 04:37:23;;;;;;;175.07;159.97;;;20.20;99.90;;;;;;5079456;28;20667;-84
2023/07/29 04:39:48;;;;;;;185.57;169.97;;;20.10;99.90;;;;;;5097762;28;20214;-84
2023/07/29 04:42:14;;;;;;;187.93;172.43;;;20.10;99.90;;;;;;5097797;28;20155;-84
2023/07/29 04:44:41;;;;;;;207.90;191.13;;;20.20;99.90;;;;;;5097805;28;20200;-84
2023/07/29 04:47:07;;;;;;;168.17;153.50;;;20.20;99.90;;;;;;5078845;28;20174;-84
2023/07/29 04:49:33;;;;;;;158.53;144.10;;;20.20;99.90;;;;;;5079177;28;20425;-84
2023/07/29 04:51:58;;;;;;;147.00;133.27;;;20.20;99.90;;;;;;5097117;28;20191;-84
2023/07/29 04:54:24;;;;;;;154.57;140.43;;;20.20;99.90;;;;;;5079241;28;20174;-84
2023/07/29 04:56:50;;;;;;;141.10;127.77;;;20.20;99.90;;;;;;5079208;28;20546;-84
2023/07/29 04:59:16;;;;;;;158.13;144.03;;;20.20;99.90;;;;;;5096691;28;20184;-85
2023/07/29 05:01:43;;;;;;;157.80;143.63;;;20.30;99.90;;;;;;5079712;28;20402;-84
2023/07/29 05:04:09;;;;;;;145.17;131.33;;;20.20;99.90;;;;;;5079068;28;20410;-84
2023/07/29 05:06:34;;;;;;;103.47;90.83;;;20.20;99.90;;;;;;5078372;28;20415;-84
2023/07/29 05:09:14;;;;;;;101.23;87.80;;;20.20;99.90;;;;;;5078946;28;20202;-84
2023/07/29 05:11:39;;;;;;;131.57;118.67;;;20.20;99.90;;;;;;5096784;28;20186;-85
2023/07/29 05:14:06;;;;;;;181.13;165.63;;;20.10;99.90;;;;;;5077735;28;20449;-84
2023/07/29 05:16:32;;;;;;;199.20;183.07;;;20.10;99.90;;;;;;5096242;28;20962;-84
2023/07/29 05:18:58;;;;;;;206.17;189.83;;;20.20;99.90;;;;;;5078205;28;20426;-84
2023/07/29 05:21:23;;;;;;;194.60;178.87;;;20.20;99.90;;;;;;5096509;28;20427;-84
2023/07/29 05:23:49;;;;;;;146.70;133.07;;;20.30;99.90;;;;;;5096818;28;20401;-84
2023/07/29 05:26:15;;;;;;;146.80;133.03;;;20.30;99.90;;;;;;5078369;28;20653;-84
2023/07/29 05:28:41;;;;;;;143.30;129.37;;;20.30;99.90;;;;;;5078142;28;20274;-84
2023/07/29 05:31:06;;;;;;;123.77;110.30;;;20.30;99.90;;;;;;5078535;28;20437;-84
2023/07/29 05:33:32;;;;;;;150.87;137.03;;;20.30;99.90;;;;;;5096199;28;20188;-84
2023/07/29 05:35:58;;;;;;;147.43;133.63;;;20.20;99.90;;;;;;5078184;28;20174;-84
2023/07/29 05:38:24;;;;;;;139.67;126.07;;;20.30;99.90;;;;;;5078975;28;20767;-84
2023/07/29 05:40:49;;;;;;;145.73;132.00;;;20.20;99.90;;;;;;5078262;28;20185;-84
2023/07/29 05:43:15;;;;;;;141.80;128.37;;;20.20;99.90;;;;;;5078102;28;20175;-84
2023/07/29 05:45:41;;;;;;;143.00;129.53;;;20.20;99.90;;;;;;5078088;28;20262;-84
2023/07/29 05:48:06;;;;;;;148.23;134.43;;;20.20;99.90;;;;;;5077903;28;20228;-84
2023/07/29 05:50:32;;;;;;;127.13;114.20;;;20.20;99.90;;;;;;5097068;28;20172;-84
2023/07/29 05:53:01;;;;;;;110.77;98.93;;;20.20;99.90;;;;;;5096824;28;20187;-84
2023/07/29 05:55:27;;;;;;;103.87;85.30;;;20.30;99.90;;;;;;5078782;28;20194;-84
2023/07/29 05:57:53;;;;;;;103.33;84.57;;;20.40;99.90;;;;;;5077820;28;20407;-84
2023/07/29 06:00:19;;;;;;;114.93;98.60;;;20.40;99.90;;;;;;5077844;28;20168;-85
2023/07/29 06:02:44;;;;;;;101.80;76.77;;;20.40;99.90;;;;;;5095734;28;20776;-85
2023/07/29 06:05:10;;;;;;;103.17;83.13;;;20.40;99.90;;;;;;5097117;28;20269;-85
2023/07/29 06:07:36;;;;;;;100.43;80.07;;;20.40;99.90;;;;;;5096103;28;20167;-85
2023/07/29 06:10:02;;;;;;;104.00;82.27;;;20.40;99.90;;;;;;5077915;28;20596;-85
2023/07/29 06:12:27;;;;;;;96.87;65.70;;;20.40;99.90;;;;;;5077696;28;20203;-85
2023/07/29 06:14:53;;;;;;;97.37;71.87;;;20.50;99.90;;;;;;5095927;28;20220;-85
2023/07/29 06:17:18;;;;;;;94.33;63.50;;;20.50;99.90;;;;;;5077950;28;20164;-84
2023/07/29 06:19:47;;;;;;;91.63;62.30;;;20.50;99.90;;;;;;5095715;28;20192;-85
2023/07/29 06:22:13;;;;;;;93.93;60.00;;;20.50;99.90;;;;;;5096190;28;20160;-85
2023/07/29 06:24:38;;;;;;;92.27;59.17;;;20.60;99.90;;;;;;5078181;28;20781;-85
2023/07/29 06:27:04;;;;;;;96.13;59.73;;;20.60;99.90;;;;;;5077867;28;20208;-85
2023/07/29 06:29:30;;;;;;;89.73;44.37;;;20.70;99.90;;;;;;5096131;28;20184;-85
2023/07/29 06:31:55;;;;;;;87.77;51.83;;;20.70;99.90;;;;;;5096167;28;20184;-85
2023/07/29 06:34:21;;;;;;;95.10;64.90;;;20.70;99.90;;;;;;5096653;28;20166;-85
2023/07/29 06:36:47;;;;;;;89.40;54.90;;;20.60;99.90;;;;;;5096308;28;20187;-85
2023/07/29 06:39:13;;;;;;;94.30;64.87;;;20.60;99.90;;;;;;5096067;28;20276;-84
2023/07/29 06:41:38;;;;;;;97.60;63.60;;;20.60;99.90;;;;;;5096335;28;20429;-85
2023/07/29 06:44:04;;;;;;;91.80;55.00;;;20.60;99.90;;;;;;5078158;28;20180;-85
2023/07/29 06:46:30;;;;;;;95.63;65.43;;;20.60;99.90;;;;;;5096307;28;20168;-85
2023/07/29 06:48:56;;;;;;;100.33;64.97;;;20.70;99.90;;;;;;5079359;28;20425;-85
2023/07/29 06:51:21;;;;;;;103.40;82.43;;;20.70;99.90;;;;;;5100552;28;20169;-85
2023/07/29 06:53:47;;;;;;;90.53;56.63;;;20.60;99.90;;;;;;5081538;28;20209;-86
2023/07/29 06:56:13;;;;;;;92.30;51.10;;;20.70;99.90;;;;;;5081257;28;20183;-85
2023/07/29 06:58:42;;;;;;;92.07;52.53;;;20.80;99.90;;;;;;5100235;28;20213;-85
2023/07/29 07:01:08;;;;;;;90.37;49.30;;;20.80;99.90;;;;;;5099969;28;20400;-85
2023/07/29 07:03:34;;;;;;;97.63;52.10;;;20.80;99.90;;;;;;5099896;28;20411;-85
2023/07/29 07:06:03;;;;;;;92.57;47.17;;;20.70;99.90;;;;;;5082791;28;20176;-85
2023/07/29 07:08:30;;;;;;;93.20;56.07;;;20.80;99.90;;;;;;5102157;28;20266;-85
2023/07/29 07:10:56;;;;;;;92.40;50.43;;;20.80;99.90;;;;;;5085966;28;20409;-85
2023/07/29 07:13:21;;;;;;;93.77;55.73;;;20.90;99.90;;;;;;5101977;28;20975;-85
2023/07/29 07:18:41;;;;;;;92.90;55.43;;;21.20;99.90;;;;;;5102436;28;20273;-85
2023/07/29 07:21:07;;;;;;;97.37;63.53;;;21.20;99.90;;;;;;5102632;28;20464;-85
2023/07/29 07:23:33;;;;;;;112.77;83.30;;;21.30;99.90;;;;;;5102746;28;20227;-86
2023/07/29 07:25:58;;;;;;;113.93;101.97;;;21.30;99.90;;;;;;5101320;28;20172;-86
2023/07/29 07:28:24;;;;;;;126.17;113.07;;;21.20;99.90;;;;;;5082840;28;20190;-86
2023/07/29 07:30:49;;;;;;;110.17;94.63;;;21.20;99.90;;;;;;5084221;28;20166;-86
2023/07/29 07:33:15;;;;;;;107.67;95.53;;;21.10;99.90;;;;;;5100068;28;20187;-85
2023/07/29 07:35:42;;;;;;;113.73;101.37;;;21.20;99.90;;;;;;5100858;28;20157;-86
2023/07/29 07:38:09;;;;;;;126.13;113.17;;;21.20;99.90;;;;;;5081495;28;20166;-85
2023/07/29 07:40:35;;;;;;;146.97;133.10;;;21.30;99.90;;;;;;5100253;28;20409;-85
2023/07/29 07:43:01;;;;;;;122.50;109.60;;;21.40;99.90;;;;;;5099536;28;20408;-85
2023/07/29 08:15:41;;;;;;;;;;;;;;;;;;;;;
2023/07/29 08:22:23;;;;;;;;;;;;;;;;;;;;;
2023/07/29 08:30:50;;;;;;;82.40;38.53;;;21.80;99.90;;;;;;4237587;25;20555;-83
2023/07/29 08:33:55;;;;;;;75.60;21.77;;;21.80;99.90;;;;;;5115429;28;20887;-83
2023/07/29 08:37:37;;;;;;;83.80;45.20;;;21.80;99.90;;;;;;5115648;28;20395;-83
2023/07/29 08:46:59;;;;;;;;;;;;;;;;;;;;;
2023/07/29 08:52:51;;;;;;;71.90;11.50;;;22.00;99.90;;;;;;4955080;29;20461;-83
2023/07/29 08:55:48;;;;;;;79.63;31.67;;;21.80;99.90;;;;;;4956745;28;20411;-83
2023/07/29 09:06:27;;;;;;;71.10;7.20;;;22.10;99.90;;;;;;4992875;28;20401;-83
2023/07/29 09:09:41;;;;;;;;;;;;;;;;;;;;;
2023/07/29 09:15:53;;;;;;;77.77;26.63;;;22.20;99.90;;;;;;4965375;28;20414;-82
2023/07/29 09:21:55;;;;;;;81.43;33.33;;;21.90;99.90;;;;;;4965596;28;20771;-83
2023/07/29 09:26:06;;;;;;;82.17;35.53;;;21.90;99.90;;;;;;4992689;28;20389;-82
2023/07/29 09:31:58;;;;;;;75.07;17.33;;;22.10;99.90;;;;;;4877588;29;20795;-82
2023/07/29 09:45:57;;;;;;;;;;;;;;;;;;;;;
2023/07/29 09:56:16;;;;;;;;;;;;;;;;;;;;;
2023/07/29 09:59:21;;;;;;;72.70;12.70;;;22.90;99.90;;;;;;4929848;28;20434;-82
2023/07/29 10:02:47;;;;;;;;;;;;;;;;;;;;;
2023/07/29 10:11:59;;;;;;;;;;;;;;;;;;;;;
2023/07/29 10:18:03;;;;;;;70.10;5.80;;;22.90;99.90;;;;;;5011584;28;20388;-82
2023/07/29 10:24:05;;;;;;;70.90;6.10;;;22.70;99.90;;;;;;5067973;28;20397;-83
2023/07/29 10:26:33;;;;;;;70.27;6.03;;;22.60;97.70;;;;;;5098104;28;20465;-83
2023/07/29 10:29:04;;;;;;;71.50;9.30;;;22.60;95.90;;;;;;5098217;28;20461;-82
2023/07/29 10:31:31;;;;;;;72.80;5.60;;;22.40;99.90;;;;;;5097458;28;20413;-83
2023/07/29 10:33:57;;;;;;;70.00;6.70;;;22.30;99.90;;;;;;5097424;28;20506;-83
2023/07/29 10:36:24;;;;;;;73.97;12.47;;;22.00;99.90;;;;;;5079427;28;20421;-82
2023/07/29 10:38:50;;;;;;;73.90;13.60;;;22.00;99.90;;;;;;5065157;28;20446;-82
2023/07/29 10:41:15;;;;;;;75.93;13.10;;;22.00;99.90;;;;;;5097462;28;20389;-82
2023/07/29 10:43:41;;;;;;;75.00;18.63;;;22.00;99.90;;;;;;5098274;28;20397;-82
2023/07/29 10:46:23;;;;;;;74.77;18.50;;;22.00;99.90;;;;;;5097168;28;20167;-82
2023/07/29 10:48:56;;;;;;;76.30;24.93;;;22.10;99.90;;;;;;5078943;28;20214;-81
2023/07/29 10:51:29;;;;;;;73.43;17.07;;;22.20;99.90;;;;;;5097259;28;20916;-81
2023/07/29 10:54:10;;;;;;;77.87;22.00;;;22.10;99.90;;;;;;5097159;28;20792;-81
2023/07/29 10:56:40;;;;;;;77.10;27.90;;;22.10;99.90;;;;;;5078730;28;20454;-81
2023/07/29 10:59:33;;;;;;;78.93;27.97;;;21.90;99.90;;;;;;5096430;28;20417;-81
2023/07/29 11:02:00;;;;;;;77.33;24.93;;;21.90;99.90;;;;;;5096830;28;20394;-81
2023/07/29 11:04:26;;;;;;;77.43;22.10;;;22.00;99.90;;;;;;5096689;28;20757;-81
2023/07/29 11:07:04;;;;;;;77.17;21.33;;;22.20;99.90;;;;;;5096588;28;20881;-81
2023/07/29 11:10:00;;;;;;;76.17;24.03;;;22.20;99.90;;;;;;5096535;28;20418;-81
2023/07/29 11:12:50;;;;;;;77.97;27.43;;;22.10;99.90;;;;;;5086361;28;20456;-81
2023/07/29 11:15:22;;;;;;;76.80;25.67;;;22.20;99.90;;;;;;5078569;28;20746;-81
2023/07/29 11:18:02;;;;;;;77.43;27.33;;;22.10;99.90;;;;;;5096574;28;20412;-81
2023/07/29 11:20:31;;;;;;;78.90;31.93;;;22.20;99.90;;;;;;5096506;28;20401;-81
2023/07/29 11:22:59;;;;;;;78.30;29.00;;;22.40;99.90;;;;;;5078120;28;20402;-82
2023/07/29 11:25:26;;;;;;;78.67;29.30;;;22.50;99.90;;;;;;5096176;28;20397;-81
2023/07/29 11:27:55;;;;;;;74.67;18.97;;;22.60;99.90;;;;;;5096172;28;20815;-82
2023/07/29 11:30:20;;;;;;;73.17;12.90;;;22.80;99.90;;;;;;5096460;28;20799;-82
2023/07/29 11:32:47;;;;;;;71.63;10.07;;;22.90;99.90;;;;;;5096057;28;20457;-82
2023/07/29 11:35:17;;;;;;;72.23;7.87;;;23.10;99.90;;;;;;5096227;28;20168;-83
2023/07/29 11:37:49;;;;;;;75.53;19.37;;;23.20;99.90;;;;;;5096655;28;20912;-82
2023/07/29 11:40:16;;;;;;;79.30;27.60;;;23.10;99.90;;;;;;5077991;28;20433;-82
2023/07/29 11:42:43;;;;;;;79.97;34.20;;;23.50;99.90;;;;;;5078048;28;20412;-83
2023/07/29 11:45:09;;;;;;;72.57;11.63;;;23.80;99.90;;;;;;5096355;28;20406;-82
2023/07/29 11:47:36;;;;;;;71.40;8.10;;;24.10;99.90;;;;;;5096721;28;20402;-82
2023/07/29 11:50:10;;;;;;;73.37;14.03;;;24.50;99.90;;;;;;5096187;28;20504;-82
2023/07/29 11:52:37;;;;;;;72.47;11.77;;;25.00;99.90;;;;;;5096348;28;20936;-83
2023/07/29 11:55:04;;;;;;;74.00;13.23;;;25.00;94.50;;;;;;5096214;28;20415;-82
2023/07/29 11:57:31;;;;;;;71.00;6.63;;;24.90;99.60;;;;;;5096448;28;20396;-83
2023/07/29 11:59:57;;;;;;;81.03;34.50;;;25.30;91.30;;;;;;5096013;28;20414;-82
2023/07/29 12:02:24;;;;;;;81.30;36.27;;;25.60;62.40;;;;;;5095894;28;20397;-82
2023/07/29 12:04:51;;;;;;;79.67;31.40;;;25.60;47.70;;;;;;5095932;28;20398;-82
2023/07/29 12:07:17;;;;;;;77.87;27.07;;;25.50;49.80;;;;;;5077299;28;20468;-82
2023/07/29 12:09:44;;;;;;;78.10;12.10;;;25.50;48.40;;;;;;5078152;28;20477;-82
2023/07/29 12:12:10;;;;;;;73.00;13.50;;;25.40;28.50;;;;;;5095965;28;20451;-83
2023/07/29 12:14:36;;;;;;;73.07;12.67;;;25.60;48.10;;;;;;5096210;28;20399;-82
2023/07/29 12:17:03;;;;;;;74.27;13.80;;;25.80;49.20;;;;;;5095582;28;20167;-82
2023/07/29 12:19:38;;;;;;;74.20;14.20;;;26.00;40.20;;;;;;5094995;28;20241;-82
2023/07/29 12:22:06;;;;;;;75.00;19.33;;;26.30;32.00;;;;;;5077630;28;20439;-83
2023/07/29 12:24:34;;;;;;;73.73;16.03;;;26.50;18.70;;;;;;5095577;28;20440;-83
2023/07/29 12:27:01;;;;;;;75.57;19.93;;;26.40;11.40;;;;;;5095335;28;20405;-82
2023/07/29 12:29:28;;;;;;;74.13;15.40;;;26.90;8.40;;;;;;5095599;28;20421;-82
2023/07/29 12:32:05;;;;;;;74.13;14.93;;;27.30;1.00;;;;;;5094820;28;20916;-82
2023/07/29 12:34:31;;;;;;;76.10;17.93;;;27.40;1.00;;;;;;5077020;28;20412;-82
2023/07/29 12:36:58;;;;;;;75.70;19.47;;;26.70;1.00;;;;;;5095137;28;20760;-82
2023/07/29 12:39:28;;;;;;;76.90;18.53;;;26.70;5.70;;;;;;5095973;28;20912;-82
2023/07/29 12:41:55;;;;;;;73.23;14.30;;;26.80;7.00;;;;;;5095267;28;20446;-83
2023/07/29 12:44:23;;;;;;;75.87;19.57;;;27.00;1.00;;;;;;5095468;28;20412;-83
2023/07/29 12:46:49;;;;;;;73.40;12.87;;;27.10;1.00;;;;;;5095016;28;20417;-83
2023/07/29 12:49:15;;;;;;;73.90;11.70;;;27.40;1.00;;;;;;5095196;28;20410;-82
2023/07/29 12:51:41;;;;;;;74.00;15.57;;;27.40;1.00;;;;;;5094820;28;20897;-83
2023/07/29 12:54:06;;;;;;;73.17;13.63;;;26.90;1.00;;;;;;5095636;28;20764;-83
2023/07/29 12:56:32;;;;;;;72.60;12.17;;;26.40;1.00;;;;;;5095615;28;20394;-83
2023/07/29 12:58:59;;;;;;;71.50;9.03;;;26.10;1.00;;;;;;5094817;28;20171;-83
2023/07/29 13:01:25;;;;;;;71.90;10.70;;;25.90;1.00;;;;;;5077308;28;20439;-83
2023/07/29 13:03:51;;;;;;;73.83;14.47;;;25.70;1.00;;;;;;5095435;28;20448;-83
2023/07/29 13:06:17;;;;;;;73.37;12.23;;;25.70;1.00;;;;;;5095147;28;20433;-83
2023/07/29 13:08:44;;;;;;;75.23;19.70;;;25.70;1.00;;;;;;5076480;28;20195;-83
2023/07/29 13:11:16;;;;;;;79.37;21.30;;;25.60;4.20;;;;;;5060121;28;20448;-82
2023/07/29 13:13:42;;;;;;;74.67;17.70;;;25.50;15.60;;;;;;5076766;28;20470;-83
2023/07/29 13:16:08;;;;;;;72.00;10.00;;;25.20;16.90;;;;;;5094828;28;20911;-83
2023/07/29 13:18:34;;;;;;;72.40;11.73;;;25.00;34.90;;;;;;5094559;28;20573;-82
2023/07/29 13:21:00;;;;;;;70.40;5.50;;;24.90;33.40;;;;;;5094728;28;20211;-82
2023/07/29 13:23:27;;;;;;;71.37;5.50;;;24.70;51.40;;;;;;5094341;28;20407;-82
2023/07/29 13:25:52;;;;;;;70.13;5.30;;;24.50;59.30;;;;;;5094051;28;20403;-81
2023/07/29 13:28:19;;;;;;;70.07;6.10;;;24.30;67.50;;;;;;5094318;28;20472;-82
2023/07/29 13:30:45;;;;;;;71.40;6.77;;;24.10;80.40;;;;;;5094367;28;20637;-81
2023/07/29 13:33:10;;;;;;;71.40;6.50;;;24.00;77.90;;;;;;5075746;28;20867;-81
2023/07/29 13:35:36;;;;;;;70.90;6.47;;;23.80;90.00;;;;;;5094212;28;20447;-81
2023/07/29 13:38:02;;;;;;;71.50;8.57;;;23.70;95.60;;;;;;5093824;28;20215;-80
2023/07/29 13:40:28;;;;;;;73.20;12.20;;;23.50;99.90;;;;;;5093715;28;20401;-80
2023/07/29 13:42:54;;;;;;;76.00;16.87;;;23.40;99.90;;;;;;5093855;28;20630;-80
2023/07/29 13:45:20;;;;;;;76.50;21.33;;;23.20;99.90;;;;;;5093695;28;20165;-81
2023/07/29 13:47:45;;;;;;;78.27;27.80;;;23.10;99.90;;;;;;5075733;28;20547;-81
2023/07/29 13:50:11;;;;;;;81.93;34.30;;;23.00;99.90;;;;;;5093889;28;20191;-81
2023/07/29 13:52:38;;;;;;;80.57;33.90;;;22.90;99.90;;;;;;5093887;28;20214;-81
2023/07/29 13:55:05;;;;;;;77.10;26.07;;;22.80;99.90;;;;;;5075652;28;20443;-81
2023/07/29 13:57:31;;;;;;;93.70;57.47;;;22.80;99.90;;;;;;5093464;28;20401;-81
2023/07/29 13:59:57;;;;;;;88.30;52.43;;;22.70;99.90;;;;;;5079491;28;20421;-81
2023/07/29 14:02:23;;;;;;;93.30;54.30;;;22.60;99.90;;;;;;5097791;28;20463;-81
2023/07/29 14:04:48;;;;;;;89.13;55.47;;;22.70;99.90;;;;;;5098104;28;20522;-81
2023/07/29 14:07:14;;;;;;;91.93;62.20;;;22.70;99.90;;;;;;5079340;28;20216;-80
2023/07/29 14:09:40;;;;;;;88.37;53.30;;;22.70;99.90;;;;;;5097390;28;20190;-81
2023/07/29 14:12:06;;;;;;;84.03;41.00;;;22.80;99.90;;;;;;5097427;28;20187;-81
2023/07/29 14:14:32;;;;;;;83.87;41.97;;;23.00;99.90;;;;;;5079098;28;20401;-81
2023/07/29 14:16:58;;;;;;;85.47;42.50;;;23.00;99.90;;;;;;5192782;22;20895;-86
2023/07/29 14:19:24;;;;;;;82.73;35.50;;;23.10;99.90;;;;;;5104834;28;20211;-86
2023/07/29 14:21:49;;;;;;;79.07;30.93;;;23.00;99.90;;;;;;5110304;28;20171;-86
2023/07/29 14:24:16;;;;;;;90.37;46.97;;;22.90;99.90;;;;;;5091804;28;20413;-86